^^
Datos históricos de la estación: Murcia-Puente Tocinos
Diario Informe para Marzo 29, 2019 Unidades:  Ambas    Ingés   Métrico
Diario Semanal Mensual Anual
  Máxima: Mínima: Promedio:
Temperatura: 81 °F /  27.2 °C 58.3 °F /  14.6 °C 67.8 °F /  19.9 °C
Punto de rocio: 61.3 °F /  16.3 °C 52.9 °F /  11.6 °C 56.8 °F /  13.8 °C
Humedad: 91% 38.5% 71%
Velocidad viento: 8.1mph /  13km/h - 4.3mph /  7km/h
Racha viento: 15mph /  24.1km/h - -
Viento- - SSO
Presión: 30.1 in /  1017.6 hPa 30 in /  1014.2 hPa -
Precipitación: 0 in /  0.0 mm    
 
 
Tabla de datos para Marzo 29, 2019
Hora Temperatura Punto de rocio Presión Viento Velocidad viento Racha viento Humedad Intensidad lluvia(por hora) Nubes
00:04 61.5 °F /  16.4 °C 58.6 °F /  14.8 °C 30in /  1015.7hPa SSO 2.5mph /  4km/h 5.9mph /  9.5km/h 90% 0in /  0.0mm
00:09 61.7 °F /  16.5 °C 58.6 °F /  14.8 °C 30in /  1015.7hPa SSO 2.4mph /  3.9km/h 6.2mph /  10km/h 90% 0in /  0.0mm
00:14 61.7 °F /  16.5 °C 58.6 °F /  14.8 °C 30in /  1015.7hPa SO 3.6mph /  5.8km/h 6mph /  9.7km/h 90% 0in /  0.0mm
00:19 61.7 °F /  16.5 °C 58.6 °F /  14.8 °C 30in /  1015.7hPa SSO 4mph /  6.5km/h 8.1mph /  13km/h 89.6% 0in /  0.0mm
00:24 61.5 °F /  16.4 °C 58.6 °F /  14.8 °C 30in /  1015.7hPa Sur 4.2mph /  6.8km/h 8mph /  12.9km/h 90% 0in /  0.0mm
00:29 61.5 °F /  16.4 °C 58.6 °F /  14.8 °C 30in /  1015.5hPa Sur 4.3mph /  6.9km/h 7mph /  11.3km/h 90% 0in /  0.0mm
00:34 61.3 °F /  16.3 °C 58.5 °F /  14.7 °C 30in /  1015.5hPa SSO 4.3mph /  6.9km/h 7mph /  11.3km/h 90% 0in /  0.0mm
00:39 61.3 °F /  16.3 °C 58.5 °F /  14.7 °C 30in /  1015.6hPa SSO 4.3mph /  6.9km/h 7mph /  11.3km/h 90% 0in /  0.0mm
00:44 61.3 °F /  16.3 °C 58.5 °F /  14.7 °C 30in /  1015.6hPa Sur 4.3mph /  6.9km/h 7mph /  11.3km/h 90% 0in /  0.0mm
00:49 61.2 °F /  16.2 °C 58.3 °F /  14.6 °C 30in /  1015.6hPa Sur 4.3mph /  6.9km/h 6mph /  9.7km/h 90% 0in /  0.0mm
00:54 61.2 °F /  16.2 °C 58.3 °F /  14.6 °C 30in /  1015.6hPa SSO 3.8mph /  6.1km/h 6mph /  9.7km/h 90% 0in /  0.0mm
00:59 61.2 °F /  16.2 °C 58.1 °F /  14.5 °C 30in /  1015.5hPa SSO 3.6mph /  5.8km/h 5.8mph /  9.3km/h 90% 0in /  0.0mm
01:04 61 °F /  16.1 °C 57.9 °F /  14.4 °C 30in /  1015.5hPa Sur 3.6mph /  5.8km/h 6mph /  9.7km/h 90% 0in /  0.0mm
01:09 61 °F /  16.1 °C 57.9 °F /  14.4 °C 30in /  1015.5hPa Sur 3.6mph /  5.8km/h 6mph /  9.7km/h 90% 0in /  0.0mm
01:14 61 °F /  16.1 °C 57.9 °F /  14.4 °C 30in /  1015.3hPa Sur 3.2mph /  5.2km/h 6mph /  9.7km/h 90% 0in /  0.0mm
01:19 60.8 °F /  16 °C 57.9 °F /  14.4 °C 30in /  1015.3hPa SSE 3.1mph /  5km/h 6.2mph /  10km/h 90.5% 0in /  0.0mm
01:24 60.6 °F /  15.9 °C 57.9 °F /  14.4 °C 30in /  1015.3hPa Sur 3.1mph /  5km/h 6mph /  9.7km/h 91% 0in /  0.0mm
01:29 60.6 °F /  15.9 °C 57.9 °F /  14.4 °C 30in /  1015.3hPa SSE 3.1mph /  5km/h 5mph /  8km/h 91% 0in /  0.0mm
01:34 60.4 °F /  15.8 °C 57.9 °F /  14.4 °C 30in /  1015.3hPa Sur 2.9mph /  4.7km/h 5.2mph /  8.4km/h 91% 0in /  0.0mm
01:39 60.4 °F /  15.8 °C 57.7 °F /  14.3 °C 30in /  1015.3hPa Sur 2.9mph /  4.7km/h 5.9mph /  9.5km/h 91% 0in /  0.0mm
01:44 60.4 °F /  15.8 °C 57.7 °F /  14.3 °C 30in /  1015.3hPa SSE 3.4mph /  5.5km/h 6mph /  9.7km/h 91% 0in /  0.0mm
01:49 60.4 °F /  15.8 °C 57.7 °F /  14.3 °C 30in /  1015.3hPa SSE 3.6mph /  5.8km/h 6.9mph /  11.1km/h 91% 0in /  0.0mm
01:54 60.3 °F /  15.7 °C 57.7 °F /  14.3 °C 30in /  1015.3hPa SSE 4.1mph /  6.6km/h 7mph /  11.3km/h 91% 0in /  0.0mm
01:59 60.3 °F /  15.7 °C 57.6 °F /  14.2 °C 30in /  1015.3hPa Sur 4.3mph /  6.9km/h 6.9mph /  11.1km/h 91% 0in /  0.0mm
02:04 60.3 °F /  15.7 °C 57.6 °F /  14.2 °C 30in /  1015.3hPa Sur 4.3mph /  6.9km/h 7mph /  11.3km/h 91% 0in /  0.0mm
02:09 60.1 °F /  15.6 °C 57.4 °F /  14.1 °C 30in /  1015.3hPa Sur 4.3mph /  6.9km/h 6mph /  9.7km/h 91% 0in /  0.0mm
02:14 60.1 °F /  15.6 °C 57.4 °F /  14.1 °C 30in /  1015.2hPa Sur 4.1mph /  6.6km/h 5.9mph /  9.5km/h 91% 0in /  0.0mm
02:19 60.1 °F /  15.6 °C 57.4 °F /  14.1 °C 30in /  1015.2hPa SSE 4mph /  6.5km/h 6mph /  9.7km/h 91% 0in /  0.0mm
02:24 59.9 °F /  15.5 °C 57.4 °F /  14.1 °C 30in /  1015.2hPa Sur 3.7mph /  6km/h 6mph /  9.7km/h 91% 0in /  0.0mm
02:29 59.7 °F /  15.4 °C 57.2 °F /  14 °C 30in /  1015.1hPa SSE 3.6mph /  5.8km/h 5.2mph /  8.4km/h 91% 0in /  0.0mm
02:34 59.7 °F /  15.4 °C 57 °F /  13.9 °C 30in /  1015.1hPa SSE 3.6mph /  5.8km/h 5mph /  8km/h 91% 0in /  0.0mm
02:39 59.7 °F /  15.4 °C 57 °F /  13.9 °C 30in /  1015.1hPa SSO 3.6mph /  5.8km/h 5mph /  8km/h 91% 0in /  0.0mm
02:44 59.7 °F /  15.4 °C 57 °F /  13.9 °C 30in /  1015.0hPa Sur 3mph /  4.9km/h 5.2mph /  8.4km/h 91% 0in /  0.0mm
02:49 59.7 °F /  15.4 °C 57 °F /  13.9 °C 30in /  1015.0hPa SSO 2.9mph /  4.7km/h 5mph /  8km/h 91% 0in /  0.0mm
02:54 59.7 °F /  15.4 °C 57 °F /  13.9 °C 30in /  1015.0hPa OSO 2.9mph /  4.7km/h 4.7mph /  7.6km/h 91% 0in /  0.0mm
02:59 59.7 °F /  15.4 °C 57 °F /  13.9 °C 30in /  1014.9hPa OSO 2.9mph /  4.7km/h 5.2mph /  8.4km/h 91% 0in /  0.0mm
03:04 59.7 °F /  15.4 °C 57 °F /  13.9 °C 30in /  1014.9hPa SO 2.5mph /  4km/h 5.2mph /  8.4km/h 91% 0in /  0.0mm
03:09 59.7 °F /  15.4 °C 57 °F /  13.9 °C 30in /  1014.9hPa SO 2.4mph /  3.9km/h 5mph /  8km/h 91% 0in /  0.0mm
03:14 59.7 °F /  15.4 °C 57 °F /  13.9 °C 30in /  1014.9hPa SO 2.8mph /  4.5km/h 5.2mph /  8.4km/h 91% 0in /  0.0mm
03:19 59.7 °F /  15.4 °C 57 °F /  13.9 °C 30in /  1014.9hPa SSO 2.9mph /  4.7km/h 5.2mph /  8.4km/h 90.7% 0in /  0.0mm
03:24 59.7 °F /  15.4 °C 56.8 °F /  13.8 °C 30in /  1014.9hPa Sur 2.9mph /  4.7km/h 5mph /  8km/h 90% 0in /  0.0mm
03:29 59.5 °F /  15.3 °C 56.7 °F /  13.7 °C 30in /  1014.9hPa Sur 2.9mph /  4.7km/h 5.2mph /  8.4km/h 90% 0in /  0.0mm
03:34 59.5 °F /  15.3 °C 56.5 °F /  13.6 °C 30in /  1014.9hPa SSE 2.9mph /  4.7km/h 5mph /  8km/h 90% 0in /  0.0mm
03:39 59.4 °F /  15.2 °C 56.7 °F /  13.7 °C 30in /  1014.9hPa SSE 2.9mph /  4.7km/h 5.9mph /  9.5km/h 90.7% 0in /  0.0mm
03:44 59.4 °F /  15.2 °C 56.7 °F /  13.7 °C 30in /  1014.8hPa Sur 3.7mph /  6km/h 6.2mph /  10km/h 91% 0in /  0.0mm
03:49 59.4 °F /  15.2 °C 56.7 °F /  13.7 °C 30in /  1014.8hPa Sur 4mph /  6.5km/h 6.9mph /  11.1km/h 91% 0in /  0.0mm
03:54 59.4 °F /  15.2 °C 56.7 °F /  13.7 °C 30in /  1014.8hPa SSO 4.2mph /  6.8km/h 7.4mph /  11.9km/h 91% 0in /  0.0mm
03:59 59.4 °F /  15.2 °C 56.7 °F /  13.7 °C 30in /  1014.7hPa Sur 4.3mph /  6.9km/h 7mph /  11.3km/h 91% 0in /  0.0mm
04:04 59.4 °F /  15.2 °C 56.7 °F /  13.7 °C 30in /  1014.7hPa Sur 5mph /  8.1km/h 7mph /  11.3km/h 91% 0in /  0.0mm
04:09 59.4 °F /  15.2 °C 56.7 °F /  13.7 °C 30in /  1014.7hPa Sur 5.2mph /  8.4km/h 7.4mph /  11.9km/h 91% 0in /  0.0mm
04:14 59.4 °F /  15.2 °C 56.7 °F /  13.7 °C 30in /  1014.6hPa Sur 4.8mph /  7.8km/h 7mph /  11.3km/h 91% 0in /  0.0mm
04:19 59.2 °F /  15.1 °C 56.7 °F /  13.7 °C 30in /  1014.6hPa SSO 4.7mph /  7.6km/h 7mph /  11.3km/h 91% 0in /  0.0mm
04:24 59.2 °F /  15.1 °C 56.7 °F /  13.7 °C 30in /  1014.6hPa SSO 4.7mph /  7.6km/h 7mph /  11.3km/h 91% 0in /  0.0mm
04:29 59.2 °F /  15.1 °C 56.7 °F /  13.7 °C 30in /  1014.5hPa SO 4.7mph /  7.6km/h 6mph /  9.7km/h 91% 0in /  0.0mm
04:34 59.2 °F /  15.1 °C 56.7 °F /  13.7 °C 30in /  1014.5hPa SSO 3.5mph /  5.6km/h 5mph /  8km/h 91% 0in /  0.0mm
04:39 59.2 °F /  15.1 °C 56.7 °F /  13.7 °C 30in /  1014.5hPa SSO 3.1mph /  5km/h 5.8mph /  9.3km/h 91% 0in /  0.0mm
04:44 59.2 °F /  15.1 °C 56.7 °F /  13.7 °C 30in /  1014.5hPa SSO 3.5mph /  5.6km/h 6.9mph /  11.1km/h 91% 0in /  0.0mm
04:49 59.2 °F /  15.1 °C 56.7 °F /  13.7 °C 30in /  1014.5hPa Sur 3.6mph /  5.8km/h 7mph /  11.3km/h 91% 0in /  0.0mm
04:54 59.2 °F /  15.1 °C 56.7 °F /  13.7 °C 30in /  1014.5hPa SSO 3.2mph /  5.2km/h 6.2mph /  10km/h 91% 0in /  0.0mm
04:59 59.2 °F /  15.1 °C 56.7 °F /  13.7 °C 30in /  1014.5hPa SSO 3.1mph /  5km/h 6mph /  9.7km/h 91% 0in /  0.0mm
05:04 59.2 °F /  15.1 °C 56.7 °F /  13.7 °C 30in /  1014.5hPa SO 3.8mph /  6.1km/h 6mph /  9.7km/h 91% 0in /  0.0mm
05:09 59.2 °F /  15.1 °C 56.7 °F /  13.7 °C 30in /  1014.5hPa SO 4mph /  6.5km/h 5mph /  8km/h 91% 0in /  0.0mm
05:14 59.2 °F /  15.1 °C 56.5 °F /  13.6 °C 30in /  1014.5hPa SSE 3.4mph /  5.4km/h 6.2mph /  10km/h 90.8% 0in /  0.0mm
05:19 59.2 °F /  15.1 °C 56.1 °F /  13.4 °C 30in /  1014.5hPa Sur 3.1mph /  5km/h 6mph /  9.7km/h 90% 0in /  0.0mm
05:24 59.2 °F /  15.1 °C 56.5 °F /  13.6 °C 30in /  1014.5hPa SSO 3.5mph /  5.6km/h 5.9mph /  9.5km/h 90.5% 0in /  0.0mm
05:29 59.2 °F /  15.1 °C 56.5 °F /  13.6 °C 30in /  1014.5hPa SSO 3.6mph /  5.8km/h 6.9mph /  11.1km/h 91% 0in /  0.0mm
05:34 59 °F /  15 °C 56.5 °F /  13.6 °C 30in /  1014.5hPa SSO 3.9mph /  6.3km/h 7mph /  11.3km/h 91% 0in /  0.0mm
05:39 59 °F /  15 °C 56.1 °F /  13.4 °C 30in /  1014.6hPa SO 4mph /  6.5km/h 7mph /  11.3km/h 90.1% 0in /  0.0mm
05:44 58.8 °F /  14.9 °C 55.9 °F /  13.3 °C 30in /  1014.6hPa SSO 4mph /  6.5km/h 6.9mph /  11.1km/h 90% 0in /  0.0mm
05:49 58.8 °F /  14.9 °C 55.9 °F /  13.3 °C 30in /  1014.6hPa SSO 4mph /  6.5km/h 7mph /  11.3km/h 90% 0in /  0.0mm
05:54 58.8 °F /  14.9 °C 55.9 °F /  13.3 °C 30in /  1014.6hPa SSO 4mph /  6.5km/h 6mph /  9.7km/h 90% 0in /  0.0mm
05:59 58.8 °F /  14.9 °C 55.9 °F /  13.3 °C 30in /  1014.6hPa Sur 4mph /  6.5km/h 6.9mph /  11.1km/h 90% 0in /  0.0mm
06:04 58.6 °F /  14.8 °C 55.8 °F /  13.2 °C 30in /  1014.6hPa Sur 4mph /  6.5km/h 7mph /  11.3km/h 90% 0in /  0.0mm
06:09 58.6 °F /  14.8 °C 55.8 °F /  13.2 °C 30in /  1014.6hPa SSO 4mph /  6.5km/h 7mph /  11.3km/h 90% 0in /  0.0mm
06:14 58.6 °F /  14.8 °C 55.8 °F /  13.2 °C 30in /  1014.5hPa SSO 4mph /  6.5km/h 6mph /  9.7km/h 90% 0in /  0.0mm
06:19 58.6 °F /  14.8 °C 55.6 °F /  13.1 °C 30in /  1014.5hPa SSO 4mph /  6.5km/h 6mph /  9.7km/h 90% 0in /  0.0mm
06:24 58.6 °F /  14.8 °C 55.6 °F /  13.1 °C 30in /  1014.7hPa SSO 4mph /  6.5km/h 6mph /  9.7km/h 90% 0in /  0.0mm
06:29 58.6 °F /  14.8 °C 55.8 °F /  13.2 °C 30in /  1014.7hPa SSO 4mph /  6.5km/h 6.2mph /  10km/h 90% 0in /  0.0mm
06:34 58.6 °F /  14.8 °C 55.8 °F /  13.2 °C 30in /  1014.7hPa SSE 4mph /  6.5km/h 6.4mph /  10.3km/h 90% 0in /  0.0mm
06:39 58.6 °F /  14.8 °C 55.8 °F /  13.2 °C 30in /  1014.7hPa Sur 4mph /  6.5km/h 7mph /  11.3km/h 90% 0in /  0.0mm
06:44 58.5 °F /  14.7 °C 55.6 °F /  13.1 °C 30in /  1014.7hPa SSO 4.2mph /  6.8km/h 7mph /  11.3km/h 90% 0in /  0.0mm
06:49 58.5 °F /  14.7 °C 55.6 °F /  13.1 °C 30in /  1014.7hPa SSO 4.3mph /  6.9km/h 6.9mph /  11.1km/h 90% 0in /  0.0mm
06:54 58.5 °F /  14.7 °C 55.6 °F /  13.1 °C 30in /  1014.9hPa SO 4.3mph /  6.9km/h 7mph /  11.3km/h 90% 0in /  0.0mm
06:59 58.5 °F /  14.7 °C 55.6 °F /  13.1 °C 30in /  1014.9hPa SO 4.3mph /  6.9km/h 7mph /  11.3km/h 90% 0in /  0.0mm
07:04 58.5 °F /  14.7 °C 55.6 °F /  13.1 °C 30in /  1014.9hPa SO 4.1mph /  6.6km/h 6.9mph /  11.1km/h 90% 0in /  0.0mm
07:09 58.5 °F /  14.7 °C 55.6 °F /  13.1 °C 30in /  1014.9hPa SO 4mph /  6.5km/h 7mph /  11.3km/h 90% 0in /  0.0mm
07:14 58.5 °F /  14.7 °C 55.6 °F /  13.1 °C 30in /  1014.9hPa SO 3.7mph /  6km/h 5mph /  8km/h 90% 0in /  0.0mm
07:19 58.5 °F /  14.7 °C 55.6 °F /  13.1 °C 30in /  1014.9hPa SO 3.6mph /  5.8km/h 6.2mph /  10km/h 90% 0in /  0.0mm
07:24 58.5 °F /  14.7 °C 55.6 °F /  13.1 °C 30in /  1015.0hPa SO 3.6mph /  5.8km/h 6.2mph /  10km/h 90% 0in /  0.0mm
07:29 58.5 °F /  14.7 °C 55.4 °F /  13 °C 30in /  1015.0hPa SO 3.6mph /  5.8km/h 6.9mph /  11.1km/h 90% 0in /  0.0mm
07:34 58.5 °F /  14.7 °C 55.4 °F /  13 °C 30in /  1015.0hPa SO 4.4mph /  7.1km/h 7mph /  11.3km/h 90% 0in /  0.0mm
07:39 58.5 °F /  14.7 °C 55.4 °F /  13 °C 30in /  1015.1hPa SO 4.7mph /  7.6km/h 7mph /  11.3km/h 89.9% 0in /  0.0mm
07:44 58.5 °F /  14.7 °C 55.4 °F /  13 °C 30in /  1015.1hPa SO 4.7mph /  7.6km/h 6mph /  9.7km/h 89.8% 0in /  0.0mm
07:49 58.5 °F /  14.7 °C 55.4 °F /  13 °C 30in /  1015.1hPa SO 4.7mph /  7.6km/h 6mph /  9.7km/h 90% 0in /  0.0mm
07:54 58.5 °F /  14.7 °C 55.6 °F /  13.1 °C 30in /  1015.3hPa SO 3.5mph /  5.6km/h 5mph /  8km/h 90% 0in /  0.0mm
07:59 58.5 °F /  14.7 °C 55.4 °F /  13 °C 30in /  1015.3hPa Sur 3.1mph /  5km/h 5mph /  8km/h 89.7% 0in /  0.0mm
08:04 58.3 °F /  14.6 °C 55 °F /  12.8 °C 30in /  1015.3hPa NE 2.1mph /  3.4km/h 5mph /  8km/h 89% 0in /  0.0mm
08:09 58.3 °F /  14.6 °C 55.4 °F /  13 °C 30in /  1015.6hPa NE 1.8mph /  2.9km/h 3mph /  4.8km/h 89.7% 0in /  0.0mm
08:14 58.5 °F /  14.7 °C 55.4 °F /  13 °C 30in /  1015.6hPa OSO 1.5mph /  2.4km/h 3.5mph /  5.6km/h 90% 0in /  0.0mm
08:19 58.6 °F /  14.8 °C 55.8 °F /  13.2 °C 30in /  1015.6hPa SO 1.4mph /  2.2km/h 3.6mph /  5.8km/h 90% 0in /  0.0mm
08:24 58.8 °F /  14.9 °C 55.6 °F /  13.1 °C 30in /  1015.7hPa Este 1.7mph /  2.7km/h 4.6mph /  7.4km/h 88.8% 0in /  0.0mm
08:29 59.2 °F /  15.1 °C 55.6 °F /  13.1 °C 30in /  1015.7hPa SE 1.8mph /  2.9km/h 5mph /  8km/h 88.1% 0in /  0.0mm
08:34 59.4 °F /  15.2 °C 55.6 °F /  13.1 °C 30in /  1015.7hPa SSO 2.2mph /  3.6km/h 5mph /  8km/h 87.2% 0in /  0.0mm
08:39 59.4 °F /  15.2 °C 55.6 °F /  13.1 °C 30in /  1015.8hPa SSO 2.4mph /  3.9km/h 5mph /  8km/h 87% 0in /  0.0mm
08:44 59.5 °F /  15.3 °C 55.8 °F /  13.2 °C 30in /  1015.8hPa Sur 2.8mph /  4.5km/h 5mph /  8km/h 87% 0in /  0.0mm
08:49 59.7 °F /  15.4 °C 55.8 °F /  13.2 °C 30in /  1015.8hPa SO 2.9mph /  4.7km/h 5mph /  8km/h 87% 0in /  0.0mm
08:54 60.3 °F /  15.7 °C 56.1 °F /  13.4 °C 30in /  1016.0hPa Sur 2.2mph /  3.6km/h 4.6mph /  7.4km/h 86.5% 0in /  0.0mm
08:59 60.4 °F /  15.8 °C 56.3 °F /  13.5 °C 30in /  1016.0hPa SSO 2mph /  3.2km/h 5.9mph /  9.5km/h 85.8% 0in /  0.0mm
09:04 61 °F /  16.1 °C 56.5 °F /  13.6 °C 30in /  1016.0hPa SSO 2.9mph /  4.6km/h 6.9mph /  11.1km/h 85% 0in /  0.0mm
09:09 61.3 °F /  16.3 °C 56.7 °F /  13.7 °C 30in /  1016.0hPa Sur 3.1mph /  5km/h 7mph /  11.3km/h 84.8% 0in /  0.0mm
09:14 61.9 °F /  16.6 °C 57 °F /  13.9 °C 30in /  1016.0hPa Sur 3.1mph /  5km/h 5.8mph /  9.3km/h 83.8% 0in /  0.0mm
09:19 62.4 °F /  16.9 °C 57 °F /  13.9 °C 30in /  1016.0hPa Sur 3.1mph /  5km/h 6mph /  9.7km/h 82.1% 0in /  0.0mm
09:24 63 °F /  17.2 °C 57 °F /  13.9 °C 30in /  1016.2hPa SSO 2.6mph /  4.2km/h 5.8mph /  9.3km/h 80.6% 0in /  0.0mm
09:29 63.3 °F /  17.4 °C 56.8 °F /  13.8 °C 30in /  1016.2hPa SSO 2.4mph /  3.9km/h 6mph /  9.7km/h 79.3% 0in /  0.0mm
09:34 63.7 °F /  17.6 °C 56.8 °F /  13.8 °C 30in /  1016.2hPa SSO 3.3mph /  5.3km/h 5.8mph /  9.3km/h 78.1% 0in /  0.0mm
09:39 64 °F /  17.8 °C 57 °F /  13.9 °C 30in /  1016.2hPa SO 3.6mph /  5.8km/h 6.2mph /  10km/h 77.7% 0in /  0.0mm
09:44 64.4 °F /  18 °C 56.7 °F /  13.7 °C 30in /  1016.2hPa SO 3.2mph /  5.2km/h 6.9mph /  11.1km/h 76% 0in /  0.0mm
09:49 64.8 °F /  18.2 °C 56.8 °F /  13.8 °C 30in /  1016.2hPa OSO 3.1mph /  5km/h 7mph /  11.3km/h 75.7% 0in /  0.0mm
09:54 64.9 °F /  18.3 °C 56.8 °F /  13.8 °C 30in /  1016.4hPa OSO 3.1mph /  5km/h 6.4mph /  10.3km/h 74.9% 0in /  0.0mm
09:59 65.3 °F /  18.5 °C 56.7 °F /  13.7 °C 30in /  1016.4hPa OSO 3.1mph /  5km/h 7mph /  11.3km/h 73.7% 0in /  0.0mm
10:04 65.7 °F /  18.7 °C 56.8 °F /  13.8 °C 30in /  1016.4hPa OSO 3.5mph /  5.6km/h 6mph /  9.7km/h 73.4% 0in /  0.0mm
10:09 65.8 °F /  18.8 °C 56.7 °F /  13.7 °C 30in /  1016.5hPa SO 3.6mph /  5.8km/h 6.9mph /  11.1km/h 72.5% 0in /  0.0mm
10:14 66.2 °F /  19 °C 56.7 °F /  13.7 °C 30in /  1016.5hPa SO 3.6mph /  5.8km/h 7mph /  11.3km/h 71.3% 0in /  0.0mm
10:19 66.7 °F /  19.3 °C 56.5 °F /  13.6 °C 30in /  1016.5hPa Sur 3.6mph /  5.8km/h 6mph /  9.7km/h 69.8% 0in /  0.0mm
10:24 67.1 °F /  19.5 °C 56.3 °F /  13.5 °C 30in /  1016.5hPa SSO 3.9mph /  6.3km/h 8.1mph /  13km/h 68.2% 0in /  0.0mm
10:29 67.5 °F /  19.7 °C 56.1 °F /  13.4 °C 30in /  1016.5hPa SSO 4mph /  6.5km/h 8.7mph /  14km/h 66.8% 0in /  0.0mm
10:34 68 °F /  20 °C 55.6 °F /  13.1 °C 30in /  1016.5hPa SSO 4.9mph /  7.9km/h 10.7mph /  17.2km/h 64.7% 0in /  0.0mm
10:39 68.4 °F /  20.2 °C 55.6 °F /  13.1 °C 30in /  1016.6hPa SSO 5.2mph /  8.4km/h 11mph /  17.7km/h 63.8% 0in /  0.0mm
10:44 68.9 °F /  20.5 °C 55.4 °F /  13 °C 30in /  1016.6hPa SSO 5.2mph /  8.4km/h 8.1mph /  13km/h 62.2% 0in /  0.0mm
10:49 69.4 °F /  20.8 °C 55.4 °F /  13 °C 30in /  1016.6hPa SSO 5.2mph /  8.4km/h 8.1mph /  13km/h 61.1% 0in /  0.0mm
10:54 69.8 °F /  21 °C 55.8 °F /  13.2 °C 30in /  1016.7hPa SSO 5.3mph /  8.6km/h 8mph /  12.9km/h 61% 0in /  0.0mm
10:59 70.2 °F /  21.2 °C 56.1 °F /  13.4 °C 30in /  1016.7hPa SSO 5.4mph /  8.7km/h 11.8mph /  19km/h 61% 0in /  0.0mm
11:04 70.3 °F /  21.3 °C 56.1 °F /  13.4 °C 30in /  1016.7hPa SSO 5.8mph /  9.3km/h 12mph /  19.3km/h 60.7% 0in /  0.0mm
11:09 70.7 °F /  21.5 °C 55.9 °F /  13.3 °C 30in /  1016.7hPa SSO 5.9mph /  9.5km/h 9.7mph /  15.6km/h 59.5% 0in /  0.0mm
11:14 71.1 °F /  21.7 °C 55.9 °F /  13.3 °C 30in /  1016.5hPa SSO 5.9mph /  9.5km/h 10.4mph /  16.7km/h 58.8% 0in /  0.0mm
11:19 71.4 °F /  21.9 °C 55.8 °F /  13.2 °C 30in /  1016.5hPa SO 5.9mph /  9.5km/h 10mph /  16.1km/h 57.8% 0in /  0.0mm
11:24 71.8 °F /  22.1 °C 55.8 °F /  13.2 °C 30in /  1016.5hPa SO 5.9mph /  9.5km/h 10mph /  16.1km/h 57.1% 0in /  0.0mm
11:29 72.1 °F /  22.3 °C 55.9 °F /  13.3 °C 30in /  1016.4hPa SO 5.9mph /  9.5km/h 10.7mph /  17.2km/h 56.6% 0in /  0.0mm
11:34 72.5 °F /  22.5 °C 55.9 °F /  13.3 °C 30in /  1016.4hPa SO 5.9mph /  9.5km/h 13.8mph /  22.2km/h 56.1% 0in /  0.0mm
11:39 72.9 °F /  22.7 °C 56.1 °F /  13.4 °C 30in /  1016.4hPa SO 5.9mph /  9.5km/h 14mph /  22.5km/h 56% 0in /  0.0mm
11:44 72.9 °F /  22.7 °C 56.3 °F /  13.5 °C 30in /  1016.3hPa SO 6.3mph /  10.1km/h 12mph /  19.3km/h 56% 0in /  0.0mm
11:49 73 °F /  22.8 °C 56.5 °F /  13.6 °C 30in /  1016.3hPa OSO 6.4mph /  10.3km/h 12mph /  19.3km/h 56% 0in /  0.0mm
11:54 73.4 °F /  23 °C 56.7 °F /  13.7 °C 30in /  1016.3hPa SO 6mph /  9.7km/h 10.4mph /  16.7km/h 55.8% 0in /  0.0mm
11:59 73.8 °F /  23.2 °C 56.3 °F /  13.5 °C 30in /  1016.3hPa OSO 5.9mph /  9.5km/h 12.7mph /  20.4km/h 54.4% 0in /  0.0mm
12:04 73.9 °F /  23.3 °C 56.3 °F /  13.5 °C 30in /  1016.3hPa SO 5.9mph /  9.5km/h 13mph /  20.9km/h 53.9% 0in /  0.0mm
12:09 74.1 °F /  23.4 °C 56.1 °F /  13.4 °C 30in /  1016.3hPa SO 5.9mph /  9.5km/h 14.5mph /  23.3km/h 53.3% 0in /  0.0mm
12:14 74.5 °F /  23.6 °C 55.8 °F /  13.2 °C 30in /  1016.1hPa OSO 6.6mph /  10.7km/h 15mph /  24.1km/h 52.4% 0in /  0.0mm
12:19 74.7 °F /  23.7 °C 55.8 °F /  13.2 °C 30in /  1016.1hPa OSO 6.9mph /  11.1km/h 13mph /  20.9km/h 51.8% 0in /  0.0mm
12:24 74.8 °F /  23.8 °C 55.6 °F /  13.1 °C 30in /  1016.1hPa SO 7.8mph /  12.6km/h 13.8mph /  22.2km/h 51.2% 0in /  0.0mm
12:29 75 °F /  23.9 °C 55.8 °F /  13.2 °C 30in /  1015.9hPa Oeste 8.1mph /  13km/h 14mph /  22.5km/h 51% 0in /  0.0mm
12:34 75.4 °F /  24.1 °C 55.8 °F /  13.2 °C 30in /  1015.9hPa OSO 6.5mph /  10.4km/h 14mph /  22.5km/h 50.6% 0in /  0.0mm
12:39 75.6 °F /  24.2 °C 55.6 °F /  13.1 °C 30in /  1015.9hPa Oeste 5.9mph /  9.5km/h 14mph /  22.5km/h 50% 0in /  0.0mm
12:44 75.7 °F /  24.3 °C 55.8 °F /  13.2 °C 30in /  1015.7hPa Oeste 6.6mph /  10.7km/h 13mph /  20.9km/h 50% 0in /  0.0mm
12:49 75.9 °F /  24.4 °C 55.9 °F /  13.3 °C 30in /  1015.7hPa OSO 6.9mph /  11.1km/h 12mph /  19.3km/h 50% 0in /  0.0mm
12:54 76.3 °F /  24.6 °C 55.9 °F /  13.3 °C 30in /  1015.7hPa OSO 6.4mph /  10.3km/h 12mph /  19.3km/h 49.7% 0in /  0.0mm
12:59 76.5 °F /  24.7 °C 56.1 °F /  13.4 °C 30in /  1015.5hPa SO 6.2mph /  10km/h 12mph /  19.3km/h 49.3% 0in /  0.0mm
13:04 76.6 °F /  24.8 °C 55.9 °F /  13.3 °C 30in /  1015.5hPa Oeste 5.6mph /  9km/h 12mph /  19.3km/h 48.6% 0in /  0.0mm
13:09 76.8 °F /  24.9 °C 55.6 °F /  13.1 °C 30in /  1015.5hPa Oeste 5.4mph /  8.7km/h 9.2mph /  14.8km/h 48.1% 0in /  0.0mm
13:14 76.8 °F /  24.9 °C 55.6 °F /  13.1 °C 30in /  1015.2hPa OSO 5.4mph /  8.7km/h 11.8mph /  19km/h 48.2% 0in /  0.0mm
13:19 76.8 °F /  24.9 °C 55.8 °F /  13.2 °C 30in /  1015.2hPa SO 5.4mph /  8.7km/h 12mph /  19.3km/h 48% 0in /  0.0mm
13:24 77.2 °F /  25.1 °C 55.9 °F /  13.3 °C 30in /  1015.2hPa OSO 6.2mph /  9.9km/h 11.4mph /  18.3km/h 47.9% 0in /  0.0mm
13:29 77.2 °F /  25.1 °C 55.8 °F /  13.2 °C 30in /  1015.2hPa OSO 6.4mph /  10.3km/h 12mph /  19.3km/h 47.5% 0in /  0.0mm
13:34 77.5 °F /  25.3 °C 55.8 °F /  13.2 °C 30in /  1015.2hPa OSO 6mph /  9.7km/h 10.4mph /  16.7km/h 47.1% 0in /  0.0mm
13:39 77.7 °F /  25.4 °C 55.4 °F /  13 °C 30in /  1015.2hPa OSO 5.9mph /  9.5km/h 13mph /  20.9km/h 46.2% 0in /  0.0mm
13:44 77.7 °F /  25.4 °C 55.6 °F /  13.1 °C 30in /  1014.9hPa Oeste 5.9mph /  9.5km/h 13mph /  20.9km/h 46.4% 0in /  0.0mm
13:49 77.9 °F /  25.5 °C 55.8 °F /  13.2 °C 30in /  1014.9hPa ONO 5.9mph /  9.5km/h 10mph /  16.1km/h 46.5% 0in /  0.0mm
13:54 78.1 °F /  25.6 °C 55.8 °F /  13.2 °C 30in /  1014.9hPa Oeste 5.4mph /  8.7km/h 13mph /  20.9km/h 46.1% 0in /  0.0mm
13:59 78.1 °F /  25.6 °C 55.2 °F /  12.9 °C 30in /  1014.7hPa Oeste 5.2mph /  8.4km/h 13mph /  20.9km/h 45.3% 0in /  0.0mm
14:04 78.3 °F /  25.7 °C 55.9 °F /  13.3 °C 30in /  1014.7hPa SO 6.2mph /  9.9km/h 12mph /  19.3km/h 46.3% 0in /  0.0mm
14:09 78.3 °F /  25.7 °C 56.3 °F /  13.5 °C 30in /  1014.7hPa SO 6.4mph /  10.3km/h 9.2mph /  14.8km/h 47.1% 0in /  0.0mm
14:14 78.3 °F /  25.7 °C 56.3 °F /  13.5 °C 30in /  1014.7hPa SO 6mph /  9.7km/h 12.7mph /  20.4km/h 47.1% 0in /  0.0mm
14:19 78.3 °F /  25.7 °C 56.5 °F /  13.6 °C 30in /  1014.7hPa SO 5.9mph /  9.5km/h 13mph /  20.9km/h 47% 0in /  0.0mm
14:24 78.4 °F /  25.8 °C 56.1 °F /  13.4 °C 30in /  1014.7hPa SO 5.4mph /  8.7km/h 9mph /  14.5km/h 46.5% 0in /  0.0mm
14:29 78.8 °F /  26 °C 56.1 °F /  13.4 °C 30in /  1014.5hPa OSO 5.2mph /  8.4km/h 8.7mph /  14km/h 46% 0in /  0.0mm
14:34 79 °F /  26.1 °C 56.3 °F /  13.5 °C 30in /  1014.5hPa OSO 4.8mph /  7.8km/h 9.2mph /  14.8km/h 45.8% 0in /  0.0mm
14:39 78.8 °F /  26 °C 56.1 °F /  13.4 °C 30in /  1014.5hPa SO 4.7mph /  7.6km/h 9.7mph /  15.6km/h 45.5% 0in /  0.0mm
14:44 79 °F /  26.1 °C 55.8 °F /  13.2 °C 30in /  1014.4hPa SO 4.4mph /  7.1km/h 10mph /  16.1km/h 44.9% 0in /  0.0mm
14:49 79.2 °F /  26.2 °C 56.1 °F /  13.4 °C 30in /  1014.4hPa OSO 4.3mph /  6.9km/h 9.7mph /  15.6km/h 45.3% 0in /  0.0mm
14:54 79.2 °F /  26.2 °C 55.9 °F /  13.3 °C 30in /  1014.4hPa Oeste 4.3mph /  6.9km/h 10mph /  16.1km/h 45% 0in /  0.0mm
14:59 79.3 °F /  26.3 °C 54.9 °F /  12.7 °C 30in /  1014.3hPa Oeste 4.3mph /  6.9km/h 7.4mph /  11.9km/h 43.1% 0in /  0.0mm
15:04 79.3 °F /  26.3 °C 55.2 °F /  12.9 °C 30in /  1014.3hPa OSO 3.4mph /  5.4km/h 8.1mph /  13km/h 43.4% 0in /  0.0mm
15:09 79.5 °F /  26.4 °C 55.4 °F /  13 °C 30in /  1014.3hPa SO 3.1mph /  5km/h 9.2mph /  14.8km/h 43.3% 0in /  0.0mm
15:14 79.3 °F /  26.3 °C 55 °F /  12.8 °C 30in /  1014.2hPa SSO 4.3mph /  6.9km/h 9mph /  14.5km/h 43% 0in /  0.0mm
15:19 79.3 °F /  26.3 °C 55 °F /  12.8 °C 30in /  1014.2hPa SSO 4.7mph /  7.6km/h 8.1mph /  13km/h 43.1% 0in /  0.0mm
15:24 79.5 °F /  26.4 °C 55.4 °F /  13 °C 30in /  1014.3hPa Sur 4.4mph /  7.1km/h 9.2mph /  14.8km/h 43.4% 0in /  0.0mm
15:29 79.5 °F /  26.4 °C 55 °F /  12.8 °C 30in /  1014.3hPa Sur 4.3mph /  6.9km/h 9mph /  14.5km/h 42.8% 0in /  0.0mm
15:34 79.5 °F /  26.4 °C 54.3 °F /  12.4 °C 30in /  1014.3hPa SO 5mph /  8km/h 8.1mph /  13km/h 41.9% 0in /  0.0mm
15:39 79.9 °F /  26.6 °C 54.1 °F /  12.3 °C 30in /  1014.3hPa SSO 5.2mph /  8.4km/h 8mph /  12.9km/h 41% 0in /  0.0mm
15:44 80.1 °F /  26.7 °C 54.1 °F /  12.3 °C 30in /  1014.2hPa Sur 4mph /  6.4km/h 9.2mph /  14.8km/h 41% 0in /  0.0mm
15:49 80.1 °F /  26.7 °C 54.3 °F /  12.4 °C 30in /  1014.2hPa SO 3.6mph /  5.8km/h 9mph /  14.5km/h 41.2% 0in /  0.0mm
15:54 80.1 °F /  26.7 °C 54.1 °F /  12.3 °C 30in /  1014.3hPa SO 4.4mph /  7.1km/h 7mph /  11.3km/h 41% 0in /  0.0mm
15:59 80.2 °F /  26.8 °C 53.8 °F /  12.1 °C 30in /  1014.3hPa SSO 4.7mph /  7.6km/h 6.2mph /  10km/h 40.1% 0in /  0.0mm
16:04 80.4 °F /  26.9 °C 53.8 °F /  12.1 °C 30in /  1014.3hPa SSO 3.3mph /  5.3km/h 7.4mph /  11.9km/h 40% 0in /  0.0mm
16:09 80.4 °F /  26.9 °C 54.3 °F /  12.4 °C 30in /  1014.3hPa SSO 2.9mph /  4.7km/h 7.4mph /  11.9km/h 40.6% 0in /  0.0mm
16:14 80.2 °F /  26.8 °C 54.3 °F /  12.4 °C 30in /  1014.3hPa Sur 3.7mph /  6km/h 7.4mph /  11.9km/h 41% 0in /  0.0mm
16:19 80.2 °F /  26.8 °C 54.5 °F /  12.5 °C 30in /  1014.3hPa SSE 4mph /  6.5km/h 7mph /  11.3km/h 41% 0in /  0.0mm
16:24 80.4 °F /  26.9 °C 54.1 °F /  12.3 °C 30in /  1014.4hPa SSE 2.8mph /  4.5km/h 5.9mph /  9.5km/h 40.4% 0in /  0.0mm
16:29 80.4 °F /  26.9 °C 54.1 °F /  12.3 °C 30in /  1014.4hPa Sur 2.4mph /  3.9km/h 6.2mph /  10km/h 40.3% 0in /  0.0mm
16:34 80.4 °F /  26.9 °C 54 °F /  12.2 °C 30in /  1014.4hPa Sur 3.3mph /  5.3km/h 6.9mph /  11.1km/h 40% 0in /  0.0mm
16:39 80.4 °F /  26.9 °C 54 °F /  12.2 °C 30in /  1014.4hPa Sur 3.6mph /  5.8km/h 7mph /  11.3km/h 40% 0in /  0.0mm
16:44 80.8 °F /  27.1 °C 54 °F /  12.2 °C 30in /  1014.4hPa SSE 2.4mph /  3.9km/h 4mph /  6.4km/h 39.6% 0in /  0.0mm
16:49 81 °F /  27.2 °C 53.6 °F /  12 °C 30in /  1014.4hPa SO 2mph /  3.2km/h 4.6mph /  7.4km/h 38.9% 0in /  0.0mm
16:54 81 °F /  27.2 °C 53.8 °F /  12.1 °C 30in /  1014.4hPa Oeste 2mph /  3.2km/h 5mph /  8km/h 39% 0in /  0.0mm
16:59 81 °F /  27.2 °C 53.6 °F /  12 °C 30in /  1014.4hPa Oeste 2mph /  3.2km/h 4.6mph /  7.4km/h 38.8% 0in /  0.0mm
17:04 81 °F /  27.2 °C 53.6 °F /  12 °C 30in /  1014.4hPa SSO 2.3mph /  3.7km/h 5mph /  8km/h 38.7% 0in /  0.0mm
17:09 81 °F /  27.2 °C 53.4 °F /  11.9 °C 30in /  1014.6hPa SSO 2.4mph /  3.9km/h 4.6mph /  7.4km/h 38.5% 0in /  0.0mm
17:14 81 °F /  27.2 °C 53.4 °F /  11.9 °C 30in /  1014.6hPa SSO 2.1mph /  3.4km/h 6.2mph /  10km/h 38.6% 0in /  0.0mm
17:19 80.6 °F /  27 °C 53.4 °F /  11.9 °C 30in /  1014.6hPa SO 2mph /  3.2km/h 6mph /  9.7km/h 39% 0in /  0.0mm
17:24 80.4 °F /  26.9 °C 53.2 °F /  11.8 °C 30in /  1014.7hPa SSO 3.5mph /  5.7km/h 6.2mph /  10km/h 39.1% 0in /  0.0mm
17:29 80.1 °F /  26.7 °C 53.2 °F /  11.8 °C 30in /  1014.7hPa SO 4mph /  6.5km/h 6mph /  9.7km/h 39.6% 0in /  0.0mm
17:34 79.9 °F /  26.6 °C 53.4 °F /  11.9 °C 30in /  1014.7hPa SSO 4mph /  6.5km/h 6mph /  9.7km/h 40% 0in /  0.0mm
17:39 79.7 °F /  26.5 °C 53.2 °F /  11.8 °C 30in /  1014.8hPa SSO 4mph /  6.5km/h 6.2mph /  10km/h 40% 0in /  0.0mm
17:44 79.5 °F /  26.4 °C 53.1 °F /  11.7 °C 30in /  1014.8hPa SSO 4mph /  6.5km/h 6.2mph /  10km/h 40% 0in /  0.0mm
17:49 79.3 °F /  26.3 °C 52.9 °F /  11.6 °C 30in /  1014.8hPa SSO 4mph /  6.5km/h 6mph /  9.7km/h 40% 0in /  0.0mm
17:54 79.2 °F /  26.2 °C 53.1 °F /  11.7 °C 30in /  1014.8hPa SSE 4mph /  6.5km/h 6mph /  9.7km/h 40.5% 0in /  0.0mm
17:59 78.8 °F /  26 °C 55 °F /  12.8 °C 30in /  1014.8hPa ESE 4mph /  6.5km/h 6.9mph /  11.1km/h 44.1% 0in /  0.0mm
18:04 77.7 °F /  25.4 °C 57 °F /  13.9 °C 30in /  1014.8hPa ESE 3.7mph /  6km/h 7mph /  11.3km/h 49% 0in /  0.0mm
18:09 76.5 °F /  24.7 °C 58.3 °F /  14.6 °C 30in /  1014.9hPa ESE 3.6mph /  5.8km/h 7mph /  11.3km/h 53.2% 0in /  0.0mm
18:14 75.7 °F /  24.3 °C 59.2 °F /  15.1 °C 30in /  1014.9hPa ESE 4.1mph /  6.6km/h 7mph /  11.3km/h 56.6% 0in /  0.0mm
18:19 75 °F /  23.9 °C 59.9 °F /  15.5 °C 30in /  1014.9hPa ESE 4.3mph /  6.9km/h 7.4mph /  11.9km/h 59.2% 0in /  0.0mm
18:24 74.5 °F /  23.6 °C 60.4 °F /  15.8 °C 30in /  1014.9hPa SE 4.6mph /  7.4km/h 8.5mph /  13.7km/h 61.7% 0in /  0.0mm
18:29 74.1 °F /  23.4 °C 61 °F /  16.1 °C 30in /  1014.9hPa SE 4.7mph /  7.6km/h 9mph /  14.5km/h 63.5% 0in /  0.0mm
18:34 73.8 °F /  23.2 °C 61.2 °F /  16.2 °C 30in /  1014.9hPa SE 4.7mph /  7.6km/h 8mph /  12.9km/h 64.5% 0in /  0.0mm
18:39 73.6 °F /  23.1 °C 61.3 °F /  16.3 °C 30in /  1015.0hPa SE 4.7mph /  7.6km/h 7mph /  11.3km/h 65.4% 0in /  0.0mm
18:44 73.4 °F /  23 °C 61.3 °F /  16.3 °C 30in /  1015.0hPa SE 4.7mph /  7.6km/h 7mph /  11.3km/h 66% 0in /  0.0mm
18:49 73.2 °F /  22.9 °C 61.3 °F /  16.3 °C 30in /  1015.0hPa SSE 4.7mph /  7.6km/h 7mph /  11.3km/h 66.5% 0in /  0.0mm
18:54 72.9 °F /  22.7 °C 61.3 °F /  16.3 °C 30in /  1015.3hPa SSE 4.2mph /  6.7km/h 7mph /  11.3km/h 67% 0in /  0.0mm
18:59 72.9 °F /  22.7 °C 61 °F /  16.1 °C 30in /  1015.3hPa SSO 4mph /  6.5km/h 7mph /  11.3km/h 66.3% 0in /  0.0mm
19:04 72.9 °F /  22.7 °C 60.4 °F /  15.8 °C 30in /  1015.3hPa SO 4mph /  6.5km/h 7.4mph /  11.9km/h 65% 0in /  0.0mm
19:09 72.7 °F /  22.6 °C 60.4 °F /  15.8 °C 30in /  1015.5hPa SO 4mph /  6.5km/h 7mph /  11.3km/h 65.7% 0in /  0.0mm
19:14 72.3 °F /  22.4 °C 60.4 °F /  15.8 °C 30in /  1015.5hPa SO 4.2mph /  6.8km/h 10.4mph /  16.7km/h 66% 0in /  0.0mm
19:19 72.1 °F /  22.3 °C 60.4 °F /  15.8 °C 30in /  1015.5hPa SO 4.3mph /  6.9km/h 10.7mph /  17.2km/h 67% 0in /  0.0mm
19:24 72 °F /  22.2 °C 60.3 °F /  15.7 °C 30in /  1015.7hPa SO 5.2mph /  8.3km/h 12.3mph /  19.8km/h 67% 0in /  0.0mm
19:29 71.6 °F /  22 °C 60.3 °F /  15.7 °C 30in /  1015.7hPa SO 5.4mph /  8.7km/h 13mph /  20.9km/h 67.7% 0in /  0.0mm
19:34 71.2 °F /  21.8 °C 60.3 °F /  15.7 °C 30in /  1015.7hPa SO 6mph /  9.7km/h 11.2mph /  18km/h 68% 0in /  0.0mm
19:39 71.1 °F /  21.7 °C 60.4 °F /  15.8 °C 30in /  1016.1hPa SSO 6.2mph /  10km/h 12mph /  19.3km/h 68.9% 0in /  0.0mm
19:44 70.9 °F /  21.6 °C 60.4 °F /  15.8 °C 30in /  1016.1hPa SSO 6.3mph /  10.2km/h 12mph /  19.3km/h 69.5% 0in /  0.0mm
19:49 70.5 °F /  21.4 °C 60.3 °F /  15.7 °C 30in /  1016.1hPa SSO 6.4mph /  10.3km/h 10.4mph /  16.7km/h 70% 0in /  0.0mm
19:54 70.3 °F /  21.3 °C 60.4 °F /  15.8 °C 30in /  1016.2hPa SSO 6mph /  9.7km/h 9.2mph /  14.8km/h 70.8% 0in /  0.0mm
19:59 70.2 °F /  21.2 °C 60.3 °F /  15.7 °C 30in /  1016.2hPa SSO 5.9mph /  9.5km/h 10.4mph /  16.7km/h 71% 0in /  0.0mm
20:04 70 °F /  21.1 °C 60.3 °F /  15.7 °C 30in /  1016.2hPa Sur 5.9mph /  9.5km/h 10mph /  16.1km/h 71.2% 0in /  0.0mm
20:09 69.8 °F /  21 °C 60.4 °F /  15.8 °C 30in /  1016.3hPa Sur 5.9mph /  9.5km/h 8mph /  12.9km/h 72% 0in /  0.0mm
20:14 69.4 °F /  20.8 °C 60.3 °F /  15.7 °C 30in /  1016.3hPa Sur 5mph /  8km/h 9.2mph /  14.8km/h 72.3% 0in /  0.0mm
20:19 69.3 °F /  20.7 °C 60.3 °F /  15.7 °C 30in /  1016.3hPa SSO 4.7mph /  7.6km/h 10.2mph /  16.4km/h 73% 0in /  0.0mm
20:24 69.3 °F /  20.7 °C 60.1 °F /  15.6 °C 30in /  1016.4hPa SSO 5.1mph /  8.2km/h 10.4mph /  16.7km/h 73% 0in /  0.0mm
20:29 69.1 °F /  20.6 °C 60.3 °F /  15.7 °C 30in /  1016.4hPa SSO 5.2mph /  8.4km/h 10mph /  16.1km/h 73.6% 0in /  0.0mm
20:34 69.1 °F /  20.6 °C 60.4 °F /  15.8 °C 30in /  1016.4hPa SSO 4.8mph /  7.8km/h 6.4mph /  10.3km/h 74% 0in /  0.0mm
20:39 68.9 °F /  20.5 °C 60.3 °F /  15.7 °C 30in /  1016.6hPa SSO 4.7mph /  7.6km/h 7mph /  11.3km/h 74% 0in /  0.0mm
20:44 68.9 °F /  20.5 °C 60.3 °F /  15.7 °C 30in /  1016.6hPa SSO 4.2mph /  6.7km/h 6mph /  9.7km/h 74% 0in /  0.0mm
20:49 68.7 °F /  20.4 °C 59.9 °F /  15.5 °C 30in /  1016.6hPa SO 4mph /  6.5km/h 6mph /  9.7km/h 73.3% 0in /  0.0mm
20:54 68.7 °F /  20.4 °C 59.7 °F /  15.4 °C 30in /  1016.8hPa SO 3.7mph /  6km/h 6.9mph /  11.1km/h 73% 0in /  0.0mm
20:59 68.7 °F /  20.4 °C 59.7 °F /  15.4 °C 30in /  1016.8hPa SO 3.6mph /  5.8km/h 7mph /  11.3km/h 73.2% 0in /  0.0mm
21:04 68.5 °F /  20.3 °C 59.9 °F /  15.5 °C 30in /  1016.8hPa SO 3.9mph /  6.3km/h 6.2mph /  10km/h 74% 0in /  0.0mm
21:09 68.4 °F /  20.2 °C 59.7 °F /  15.4 °C 30in /  1017.1hPa SSO 4mph /  6.5km/h 7.4mph /  11.9km/h 74% 0in /  0.0mm
21:14 68.2 °F /  20.1 °C 59.7 °F /  15.4 °C 30in /  1017.1hPa SSO 4.5mph /  7.3km/h 9.2mph /  14.8km/h 74.3% 0in /  0.0mm
21:19 68.2 °F /  20.1 °C 59.9 °F /  15.5 °C 30in /  1017.1hPa SSO 4.7mph /  7.6km/h 9mph /  14.5km/h 75% 0in /  0.0mm
21:24 68.2 °F /  20.1 °C 60.1 °F /  15.6 °C 30in /  1017.2hPa SSO 5.1mph /  8.2km/h 9.2mph /  14.8km/h 75% 0in /  0.0mm
21:29 68.2 °F /  20.1 °C 59.9 °F /  15.5 °C 30in /  1017.2hPa SSO 5.2mph /  8.4km/h 9.2mph /  14.8km/h 75% 0in /  0.0mm
21:34 67.8 °F /  19.9 °C 59.7 °F /  15.4 °C 30in /  1017.2hPa SO 5.3mph /  8.6km/h 11.2mph /  18km/h 75% 0in /  0.0mm
21:39 67.8 °F /  19.9 °C 59.5 °F /  15.3 °C 30in /  1017.2hPa SSO 5.4mph /  8.7km/h 12mph /  19.3km/h 75% 0in /  0.0mm
21:44 67.6 °F /  19.8 °C 59.5 °F /  15.3 °C 30in /  1017.2hPa SSO 6mph /  9.7km/h 11mph /  17.7km/h 75.1% 0in /  0.0mm
21:49 67.6 °F /  19.8 °C 59.5 °F /  15.3 °C 30in /  1017.2hPa SSO 6.2mph /  10km/h 10.4mph /  16.7km/h 75.2% 0in /  0.0mm
21:54 67.6 °F /  19.8 °C 59.4 °F /  15.2 °C 30in /  1017.4hPa SSO 6.2mph /  10km/h 10mph /  16.1km/h 75% 0in /  0.0mm
21:59 67.6 °F /  19.8 °C 59.4 °F /  15.2 °C 30in /  1017.4hPa SSO 6.2mph /  10km/h 9mph /  14.5km/h 75% 0in /  0.0mm
22:04 67.6 °F /  19.8 °C 59.4 °F /  15.2 °C 30in /  1017.4hPa SSO 5.6mph /  9km/h 8mph /  12.9km/h 75% 0in /  0.0mm
22:09 67.5 °F /  19.7 °C 59.4 °F /  15.2 °C 30in /  1017.4hPa SSO 5.4mph /  8.7km/h 7mph /  11.3km/h 75% 0in /  0.0mm
22:14 67.5 °F /  19.7 °C 59.2 °F /  15.1 °C 30in /  1017.4hPa Sur 4.5mph /  7.3km/h 7mph /  11.3km/h 75% 0in /  0.0mm
22:19 67.3 °F /  19.6 °C 59.2 °F /  15.1 °C 30in /  1017.4hPa Sur 4.3mph /  6.9km/h 6mph /  9.7km/h 75% 0in /  0.0mm
22:24 67.3 °F /  19.6 °C 59.2 °F /  15.1 °C 30in /  1017.4hPa SSO 3.8mph /  6.1km/h 5.9mph /  9.5km/h 75% 0in /  0.0mm
22:29 67.1 °F /  19.5 °C 59 °F /  15 °C 30in /  1017.4hPa Sur 3.6mph /  5.8km/h 6.2mph /  10km/h 75% 0in /  0.0mm
22:34 67.1 °F /  19.5 °C 58.8 °F /  14.9 °C 30in /  1017.4hPa SSO 3.9mph /  6.3km/h 6.2mph /  10km/h 75% 0in /  0.0mm
22:39 66.9 °F /  19.4 °C 58.6 °F /  14.8 °C 30.1in /  1017.5hPa SO 4mph /  6.5km/h 6.2mph /  10km/h 74.8% 0in /  0.0mm
22:44 67.1 °F /  19.5 °C 58.5 °F /  14.7 °C 30.1in /  1017.5hPa SO 3.7mph /  6km/h 6.9mph /  11.1km/h 73.9% 0in /  0.0mm
22:49 67.3 °F /  19.6 °C 58.3 °F /  14.6 °C 30.1in /  1017.5hPa SO 3.6mph /  5.8km/h 7mph /  11.3km/h 72.6% 0in /  0.0mm
22:54 67.5 °F /  19.7 °C 57.9 °F /  14.4 °C 30.1in /  1017.6hPa SSO 4.4mph /  7.1km/h 8.5mph /  13.7km/h 71.6% 0in /  0.0mm
22:59 67.8 °F /  19.9 °C 57.7 °F /  14.3 °C 30.1in /  1017.6hPa SSO 4.7mph /  7.6km/h 9.2mph /  14.8km/h 70.2% 0in /  0.0mm
23:04 68 °F /  20 °C 57.4 °F /  14.1 °C 30.1in /  1017.6hPa SSO 6mph /  9.7km/h 10.7mph /  17.2km/h 69.1% 0in /  0.0mm
23:09 67.8 °F /  19.9 °C 57.4 °F /  14.1 °C 30.1in /  1017.6hPa SSO 6.4mph /  10.3km/h 11mph /  17.7km/h 69% 0in /  0.0mm
23:14 67.8 °F /  19.9 °C 57.4 °F /  14.1 °C 30.1in /  1017.6hPa SSO 6.4mph /  10.3km/h 10.7mph /  17.2km/h 69.5% 0in /  0.0mm
23:19 67.6 °F /  19.8 °C 57.4 °F /  14.1 °C 30.1in /  1017.6hPa SSO 6.4mph /  10.3km/h 11mph /  17.7km/h 70% 0in /  0.0mm
23:24 67.5 °F /  19.7 °C 57.2 °F /  14 °C 30.1in /  1017.6hPa SSO 6.3mph /  10.1km/h 10mph /  16.1km/h 70% 0in /  0.0mm
23:29 67.3 °F /  19.6 °C 57.2 °F /  14 °C 30.1in /  1017.6hPa SSO 6.2mph /  10km/h 9.2mph /  14.8km/h 70% 0in /  0.0mm
23:34 67.3 °F /  19.6 °C 57.2 °F /  14 °C 30.1in /  1017.6hPa SSO 6mph /  9.6km/h 9.2mph /  14.8km/h 70% 0in /  0.0mm
23:39 67.3 °F /  19.6 °C 57.2 °F /  14 °C 30.1in /  1017.6hPa SSO 5.9mph /  9.5km/h 10.4mph /  16.7km/h 70% 0in /  0.0mm
23:44 67.5 °F /  19.7 °C 57 °F /  13.9 °C 30.1in /  1017.6hPa SSO 6.2mph /  9.9km/h 11.5mph /  18.5km/h 69.5% 0in /  0.0mm
23:49 67.5 °F /  19.7 °C 56.8 °F /  13.8 °C 30.1in /  1017.6hPa SSO 6.2mph /  10km/h 12mph /  19.3km/h 69% 0in /  0.0mm
23:54 67.6 °F /  19.8 °C 56.8 °F /  13.8 °C 30.1in /  1017.6hPa SSO 7.1mph /  11.4km/h 12mph /  19.3km/h 68.4% 0in /  0.0mm
23:59 67.6 °F /  19.8 °C 56.7 °F /  13.7 °C 30.1in /  1017.6hPa SSO 7.4mph /  11.9km/h 13mph /  20.9km/h 68% 0in /  0.0mm
Murcia-Puente Tocinos, Espa?a
Compliments of Weather Underground - 3.25 mb

La estación de MeteoMurcia.com, publica sus datos en los siguientes proyectos:

Weather Underground PWS IMURCIAP2 Meteoclimatic www.awekas.at

W3Counter
Web Analytics